Time;durP1;ratioP1;P1;durP2;ratioP2;P2;SDS_P1;SDS_P2;PMS_P1;PMS_P2;Temp;Humidity;BMP_temperature;BMP_pressure;BME280_temperature;BME280_humidity;BME280_pressure;Samples;Min_cycle;Max_cycle;Signal;HPM_P1;HPM_P2
2023/09/10 00:02:06;;;;;;;25.00;19.00;;;;;;;14.74;82.34;100501.16;133820;1299;22422;-80
2023/09/10 00:05:07;;;;;;;24.70;19.40;;;;;;;14.78;82.64;100500.31;133895;1298;22600;-78
2023/09/10 00:08:08;;;;;;;27.50;20.30;;;;;;;14.82;82.84;100494.86;133909;1298;22933;-79
2023/09/10 00:11:08;;;;;;;24.60;19.50;;;;;;;14.87;82.87;100489.27;133951;1298;22411;-81
2023/09/10 00:14:09;;;;;;;25.60;20.00;;;;;;;14.92;82.98;100490.39;133940;1298;22622;-79
2023/09/10 00:17:09;;;;;;;;;;;;;;;14.98;83.02;100490.27;134002;1298;22457;-79
2023/09/10 00:20:10;;;;;;;23.30;18.80;;;;;;;14.98;83.02;100489.48;133942;1298;22443;-78
2023/09/10 00:23:12;;;;;;;26.20;19.40;;;;;;;14.96;83.10;100487.11;133975;1298;22419;-82
2023/09/10 00:26:13;;;;;;;25.10;19.80;;;;;;;14.96;83.38;100486.54;133945;1298;22435;-80
2023/09/10 00:29:15;;;;;;;27.30;20.10;;;;;;;15.02;83.65;100484.93;133912;1298;22443;-78
2023/09/10 00:32:16;;;;;;;;;;;;;;;15.07;83.39;100485.59;133828;1298;22549;-79
2023/09/10 00:35:16;;;;;;;24.60;19.90;;;;;;;15.06;83.33;100487.11;133940;1298;22228;-81
2023/09/10 00:38:17;;;;;;;;;;;;;;;15.03;83.40;100482.19;133925;1298;22502;-78
2023/09/10 00:41:18;;;;;;;23.50;19.40;;;;;;;15.01;83.68;100481.86;133861;1299;22477;-78
2023/09/10 00:44:18;;;;;;;22.40;19.30;;;;;;;15.00;83.69;100474.70;133808;1299;22508;-84
2023/09/10 00:47:19;;;;;;;22.90;19.00;;;;;;;14.97;83.28;100476.97;133947;1299;22379;-81
2023/09/10 00:50:20;;;;;;;22.60;18.80;;;;;;;14.96;83.54;100474.20;133812;1299;22505;-78
2023/09/10 00:53:22;;;;;;;26.20;19.70;;;;;;;14.96;83.81;100477.95;133962;1298;22272;-78
2023/09/10 00:56:24;;;;;;;26.50;20.60;;;;;;;14.96;84.06;100474.95;133912;1298;22350;-88
2023/09/10 00:59:25;;;;;;;24.70;19.60;;;;;;;14.98;84.21;100478.42;134046;1298;22492;-81
2023/09/10 01:02:26;;;;;;;;;;;;;;;14.97;84.12;100484.38;134025;1298;22466;-78
2023/09/10 01:05:32;;;;;;;29.40;20.50;;;;;;;14.97;84.36;100482.19;133977;1298;22373;-77
2023/09/10 01:08:33;;;;;;;23.70;19.40;;;;;;;14.96;84.40;100483.98;133965;1298;22445;-78
2023/09/10 01:11:47;;;;;;;23.50;18.30;;;;;;;14.95;84.29;100483.40;133841;1298;22448;-81
2023/09/10 01:15:07;;;;;;;24.80;20.20;;;;;;;14.92;84.36;100487.42;133969;1298;22367;-80
2023/09/10 01:18:48;;;;;;;23.90;18.80;;;;;;;14.86;84.39;100486.52;133969;1298;23243;-80
2023/09/10 01:21:55;;;;;;;22.50;20.10;;;;;;;14.80;84.45;100484.39;133102;1299;22612;-80
2023/09/10 01:24:57;;;;;;;23.10;19.80;;;;;;;14.73;84.76;100486.41;133975;1298;23529;-88
2023/09/10 01:27:58;;;;;;;25.40;19.90;;;;;;;14.70;84.80;100485.02;133962;1298;22449;-78
2023/09/10 01:30:58;;;;;;;23.00;19.10;;;;;;;14.69;85.06;100483.50;133937;1298;22531;-79
2023/09/10 01:34:01;;;;;;;;;;;;;;;14.69;85.07;100479.60;133948;1298;23074;-78
2023/09/10 01:37:18;;;;;;;27.80;21.00;;;;;;;14.72;85.47;100475.58;133949;1298;23603;-77
2023/09/10 01:40:21;;;;;;;24.90;21.20;;;;;;;14.73;85.68;100472.55;133995;1298;22359;-78
2023/09/10 01:43:25;;;;;;;29.60;21.50;;;;;;;14.73;85.62;100474.93;133961;1298;22400;-81
2023/09/10 01:46:27;;;;;;;26.40;20.20;;;;;;;14.71;85.67;100475.89;133988;1295;22380;-82
2023/09/10 01:49:28;;;;;;;20.70;14.80;;;;;;;14.67;84.71;100477.36;133999;1298;22407;-78
2023/09/10 01:52:29;;;;;;;23.00;15.80;;;;;;;14.58;83.61;100478.34;133932;1298;22345;-78
2023/09/10 01:55:32;;;;;;;19.50;15.50;;;;;;;14.47;82.98;100473.52;133923;1298;22367;-77
2023/09/10 01:58:33;;;;;;;23.00;14.80;;;;;;;14.37;82.63;100474.60;133809;1298;23101;-81
2023/09/10 02:01:33;;;;;;;;;;;;;;;14.27;82.46;100472.02;133839;1298;22469;-78
2023/09/10 02:04:34;;;;;;;17.60;14.40;;;;;;;14.20;82.49;100469.30;133952;1298;22862;-77
2023/09/10 02:07:35;;;;;;;23.10;17.00;;;;;;;14.14;82.32;100472.52;133974;1298;22383;-80
2023/09/10 02:10:36;;;;;;;20.40;16.40;;;;;;;14.08;82.63;100473.58;133974;1298;22525;-78
2023/09/10 02:13:36;;;;;;;;;;;;;;;14.00;82.15;100471.93;133832;1298;22445;-77
2023/09/10 02:16:37;;;;;;;17.70;14.50;;;;;;;13.92;81.71;100474.38;133938;1298;22624;-79
2023/09/10 02:19:37;;;;;;;18.90;14.50;;;;;;;13.85;81.62;100475.67;133938;1298;22355;-78
2023/09/10 02:22:39;;;;;;;16.30;12.30;;;;;;;13.78;81.60;100473.27;133926;1298;22693;-80
2023/09/10 02:25:40;;;;;;;20.50;13.80;;;;;;;13.73;81.54;100475.86;133864;1298;23158;-83
2023/09/10 02:28:40;;;;;;;16.40;13.80;;;;;;;13.67;81.29;100476.14;134009;1298;22365;-80
2023/09/10 02:31:41;;;;;;;19.60;15.40;;;;;;;13.62;81.26;100471.28;133854;1298;22532;-79
2023/09/10 02:34:41;;;;;;;;;;;;;;;13.57;81.36;100472.59;134005;1298;22425;-81
2023/09/10 02:59:22;;;;;;;19.50;15.90;;;;;;;13.09;83.35;100474.15;133968;1298;22195;-82
2023/09/10 03:02:23;;;;;;;27.70;16.70;;;;;;;13.05;83.53;100474.31;133936;1298;23017;-80
2023/09/10 03:05:23;;;;;;;;;;;;;;;13.02;83.84;100473.52;133822;1298;23291;-83
2023/09/10 03:08:24;;;;;;;17.90;15.60;;;;;;;13.00;83.93;100469.63;133885;1298;23202;-79
2023/09/10 03:11:24;;;;;;;;;;;;;;;12.96;83.81;100467.79;133976;1298;22505;-78
2023/09/10 03:14:25;;;;;;;18.30;15.50;;;;;;;12.94;84.03;100466.02;133948;1298;22524;-79
2023/09/10 03:17:26;;;;;;;16.80;14.50;;;;;;;12.91;83.74;100462.24;133851;1298;22435;-76
2023/09/10 03:20:27;;;;;;;18.10;15.70;;;;;;;12.85;83.18;100460.31;133874;1298;22642;-80
2023/09/10 03:23:28;;;;;;;;;;;;;;;12.75;83.28;100458.05;133710;1298;173811;-78
2023/09/10 03:26:28;;;;;;;17.90;13.70;;;;;;;12.67;83.59;100461.61;133912;1298;22862;-83
2023/09/10 03:29:32;;;;;;;19.50;15.10;;;;;;;12.63;83.51;100458.36;133974;1298;22364;-78
2023/09/10 03:32:33;;;;;;;21.30;16.00;;;;;;;12.62;84.03;100457.77;133819;1299;23084;-82
2023/09/10 03:35:34;;;;;;;17.60;15.70;;;;;;;12.63;84.29;100455.41;133865;1298;22403;-77
2023/09/10 03:38:34;;;;;;;15.20;13.40;;;;;;;12.61;83.69;100451.29;133895;1298;23060;-80
2023/09/10 03:41:35;;;;;;;24.50;20.00;;;;;;;12.59;83.73;100445.05;133965;1298;22494;-80
2023/09/10 03:44:36;;;;;;;19.90;15.00;;;;;;;12.58;84.24;100442.21;133917;1295;22209;-79
2023/09/10 03:47:37;;;;;;;22.80;16.10;;;;;;;12.56;84.44;100437.65;133776;1298;23605;-81
2023/09/10 03:50:38;;;;;;;20.90;18.60;;;;;;;12.55;84.53;100436.73;133925;1298;23235;-79
2023/09/10 03:53:38;;;;;;;27.00;21.30;;;;;;;12.55;85.05;100437.02;133970;1292;22237;-78
2023/09/10 03:56:39;;;;;;;;;;;;;;;12.55;85.31;100434.57;133894;1301;23257;-77
2023/09/10 03:59:40;;;;;;;22.70;18.00;;;;;;;12.55;85.73;100434.77;133903;1298;23121;-81
2023/09/10 04:02:41;;;;;;;19.20;16.60;;;;;;;12.51;85.21;100433.39;133873;1298;23159;-77
2023/09/10 04:05:42;;;;;;;19.00;16.00;;;;;;;12.43;84.71;100428.66;133988;1298;22441;-81
2023/09/10 04:08:43;;;;;;;20.70;15.40;;;;;;;12.41;84.90;100429.73;133910;1298;22395;-80
2023/09/10 04:11:43;;;;;;;19.60;16.00;;;;;;;12.41;84.78;100431.05;133928;1298;22418;-79
2023/09/10 04:14:44;;;;;;;17.80;15.30;;;;;;;12.40;84.84;100422.00;133923;1298;23329;-83
2023/09/10 04:17:44;;;;;;;18.70;13.90;;;;;;;12.41;84.84;100423.23;133958;1298;22458;-88
2023/09/10 04:20:45;;;;;;;17.20;13.30;;;;;;;12.37;84.77;100420.41;133929;1298;22444;-83
2023/09/10 04:23:46;;;;;;;15.10;13.30;;;;;;;12.32;84.72;100415.98;133926;1298;23545;-82
2023/09/10 04:26:47;;;;;;;;;;;;;;;12.30;84.69;100421.38;133875;1298;22479;-77
2023/09/10 04:29:48;;;;;;;17.90;14.60;;;;;;;12.37;85.52;100425.14;133871;1298;22451;-83
2023/09/10 04:32:48;;;;;;;;;;;;;;;12.41;85.38;100427.79;133955;1298;23254;-78
2023/09/10 04:35:53;;;;;;;15.70;13.70;;;;;;;12.40;84.74;100429.92;133936;1298;22821;-81
2023/09/10 04:38:55;;;;;;;19.00;15.20;;;;;;;12.39;84.82;100432.86;133908;1298;22418;-78
2023/09/10 04:41:57;;;;;;;15.30;13.60;;;;;;;12.42;84.72;100434.48;133878;1289;22402;-81
2023/09/10 04:44:58;;;;;;;15.90;14.00;;;;;;;12.44;84.47;100436.70;133937;1298;23208;-77
2023/09/10 04:47:59;;;;;;;15.90;14.20;;;;;;;12.45;84.37;100442.42;133920;1298;22357;-84
2023/09/10 04:50:59;;;;;;;16.50;14.70;;;;;;;12.49;84.45;100445.69;133942;1298;22388;-81
2023/09/10 04:54:00;;;;;;;16.10;13.90;;;;;;;12.55;84.37;100450.14;133879;1298;22192;-77
2023/09/10 04:57:04;;;;;;;17.40;13.20;;;;;;;12.60;84.49;100453.52;133907;1298;22198;-83
2023/09/10 05:00:05;;;;;;;19.90;16.20;;;;;;;12.67;84.45;100455.23;133950;1298;22366;-79
2023/09/10 05:03:06;;;;;;;20.70;18.10;;;;;;;12.74;85.15;100453.44;133839;1298;22452;-79
2023/09/10 05:06:10;;;;;;;21.50;17.30;;;;;;;12.82;85.30;100452.83;133917;1298;23109;-78
2023/09/10 05:09:11;;;;;;;27.80;23.20;;;;;;;12.89;85.19;100453.48;133895;1292;23120;-81
2023/09/10 05:12:12;;;;;;;;;;;;;;;13.03;85.94;100451.38;133919;1298;22481;-80
2023/09/10 05:15:12;;;;;;;26.70;21.60;;;;;;;13.29;86.03;100452.84;133947;1298;22447;-80
2023/09/10 05:18:13;;;;;;;27.30;23.50;;;;;;;13.70;86.54;100450.09;133997;1298;23040;-83
2023/09/10 05:21:13;;;;;;;;;;;;;;;14.23;87.45;100452.09;133939;1298;22447;-78
2023/09/10 05:24:14;;;;;;;32.60;25.00;;;;;;;14.77;87.51;100453.28;133948;1298;22457;-79
2023/09/10 05:27:15;;;;;;;30.40;24.50;;;;;;;15.30;87.57;100449.30;133889;1298;22372;-78
2023/09/10 05:30:15;;;;;;;28.20;23.30;;;;;;;15.83;87.24;100453.02;133905;1298;22609;-82
2023/09/10 05:33:16;;;;;;;;;;;;;;;16.43;87.06;100452.83;133962;1298;22457;-81
2023/09/10 05:36:16;;;;;;;25.30;22.50;;;;;;;17.02;86.16;100450.00;133920;1298;22479;-79
2023/09/10 05:39:17;;;;;;;;;;;;;;;17.48;85.36;100449.42;133917;1298;22485;-79
2023/09/10 05:42:18;;;;;;;24.50;21.60;;;;;;;17.91;84.61;100442.59;133826;1298;23175;-79
2023/09/10 05:45:19;;;;;;;23.30;20.80;;;;;;;18.29;83.89;100445.15;133850;1298;22393;-81
2023/09/10 05:48:22;;;;;;;25.10;20.60;;;;;;;18.69;83.08;100446.73;133891;1298;22437;-82
2023/09/10 05:51:22;;;;;;;24.40;21.20;;;;;;;18.91;81.84;100449.77;133928;1298;23149;-82
2023/09/10 05:54:23;;;;;;;22.90;20.40;;;;;;;19.19;81.63;100448.02;133870;1299;22218;-81
2023/09/10 05:57:24;;;;;;;23.50;20.10;;;;;;;19.45;80.57;100451.23;133847;1298;22402;-84
2023/09/10 06:00:24;;;;;;;25.20;19.50;;;;;;;19.64;79.61;100452.54;133913;1298;22496;-81
2023/09/10 06:03:25;;;;;;;26.80;19.70;;;;;;;19.78;78.99;100450.22;133937;1298;22360;-81
2023/09/10 06:06:28;;;;;;;21.20;18.70;;;;;;;20.04;78.73;100452.77;133922;1298;22515;-83
2023/09/10 06:09:30;;;;;;;25.20;19.10;;;;;;;20.35;78.38;100451.05;133854;1298;23015;-85
2023/09/10 06:12:31;;;;;;;22.30;18.80;;;;;;;20.75;77.98;100451.33;133836;1298;22274;-84
2023/09/10 06:15:31;;;;;;;22.90;19.30;;;;;;;21.18;77.07;100451.99;133938;1298;22411;-79
2023/09/10 06:18:32;;;;;;;22.00;17.60;;;;;;;21.50;76.29;100452.89;133915;1298;22387;-84
2023/09/10 06:21:35;;;;;;;20.60;17.90;;;;;;;21.80;75.39;100449.67;133874;1298;22540;-73
2023/09/10 06:24:40;;;;;;;19.70;16.80;;;;;;;22.11;74.94;100450.92;133727;1298;22748;-82
2023/09/10 06:27:41;;;;;;;20.60;18.10;;;;;;;22.55;74.34;100454.20;133802;1291;23019;-77
2023/09/10 06:30:42;;;;;;;19.00;16.90;;;;;;;22.90;73.22;100457.27;133951;1298;22967;-79
2023/09/10 06:33:42;;;;;;;19.00;15.60;;;;;;;23.28;72.48;100459.31;133968;1300;22444;-83
2023/09/10 06:36:43;;;;;;;19.60;16.40;;;;;;;23.68;71.87;100465.28;133864;1298;22500;-78
2023/09/10 06:39:44;;;;;;;20.40;16.30;;;;;;;24.05;70.47;100464.17;133917;1298;23274;-83
2023/09/10 06:42:45;;;;;;;18.00;15.00;;;;;;;24.16;69.13;100465.84;133878;1301;22423;-81
2023/09/10 06:45:54;;;;;;;17.80;13.50;;;;;;;24.37;68.47;100464.32;133842;1298;22575;-82
2023/09/10 06:48:54;;;;;;;16.70;14.90;;;;;;;24.61;67.79;100461.80;133949;1298;23170;-82
2023/09/10 06:51:56;;;;;;;16.60;14.50;;;;;;;24.74;67.17;100460.82;133942;1298;22174;-83
2023/09/10 06:54:59;;;;;;;16.30;13.20;;;;;;;24.98;66.37;100466.00;133948;1298;23150;-79
2023/09/10 06:58:00;;;;;;;16.70;13.50;;;;;;;24.92;65.14;100463.65;133937;1298;22495;-82
2023/09/10 07:01:05;;;;;;;15.90;14.00;;;;;;;24.99;64.95;100466.89;133982;1298;22461;-84
2023/09/10 07:04:20;;;;;;;14.70;13.10;;;;;;;25.29;64.88;100466.14;133979;1297;22202;-84
2023/09/10 07:07:20;;;;;;;14.60;11.80;;;;;;;25.56;63.67;100463.27;133963;1298;23709;-83
2023/09/10 07:10:21;;;;;;;18.40;12.40;;;;;;;25.80;63.07;100460.38;133909;1298;22370;-81
2023/09/10 07:13:21;;;;;;;16.90;12.50;;;;;;;26.02;62.43;100453.35;133911;1298;23072;-84
2023/09/10 07:16:23;;;;;;;14.80;11.80;;;;;;;26.25;61.85;100456.91;133953;1295;22380;-86
2023/09/10 07:19:23;;;;;;;16.70;12.30;;;;;;;26.41;59.78;100457.89;133952;1298;22296;-86
2023/09/10 07:22:25;;;;;;;12.90;10.60;;;;;;;26.39;59.79;100459.02;133935;1298;22426;-85
2023/09/10 07:25:26;;;;;;;12.40;10.80;;;;;;;26.66;59.97;100459.50;133958;1298;22723;-78
2023/09/10 07:28:27;;;;;;;13.90;11.40;;;;;;;26.94;58.63;100461.26;133956;1298;22405;-81
2023/09/10 07:31:27;;;;;;;13.20;11.50;;;;;;;26.90;57.36;100458.13;133821;1298;23270;-77
2023/09/10 07:34:28;;;;;;;14.60;10.70;;;;;;;26.99;57.79;100461.88;133942;1298;22399;-76
2023/09/10 07:37:29;;;;;;;12.30;10.10;;;;;;;27.48;57.68;100460.70;133954;1293;22426;-80
2023/09/10 07:40:29;;;;;;;13.50;10.40;;;;;;;27.78;57.05;100463.77;133930;1298;22437;-80
2023/09/10 07:43:30;;;;;;;17.70;11.50;;;;;;;28.03;56.39;100461.27;133921;1298;23101;-80
2023/09/10 07:46:31;;;;;;;10.90;9.80;;;;;;;28.22;55.28;100459.77;133913;1298;22439;-79
2023/09/10 07:49:32;;;;;;;13.60;10.20;;;;;;;28.32;54.80;100454.06;133831;1298;23292;-79
2023/09/10 07:52:33;;;;;;;9.90;8.90;;;;;;;28.63;54.57;100451.60;133887;1298;22413;-77
2023/09/10 07:55:35;;;;;;;11.20;8.80;;;;;;;28.85;53.95;100452.77;133907;1298;23303;-77
2023/09/10 07:58:35;;;;;;;11.90;9.90;;;;;;;29.15;53.94;100454.27;133924;1298;22436;-76
2023/09/10 08:01:36;;;;;;;10.00;9.00;;;;;;;29.43;53.23;100457.70;133896;1298;22468;-78
2023/09/10 08:04:37;;;;;;;9.90;8.50;;;;;;;29.66;52.24;100451.64;133886;1298;22972;-78
2023/09/10 08:07:37;;;;;;;10.20;8.10;;;;;;;29.87;51.87;100452.29;133898;1298;22220;-77
2023/09/10 08:10:43;;;;;;;20.60;9.00;;;;;;;30.11;51.28;100450.53;133896;1298;23906;-76
2023/09/10 08:13:44;;;;;;;8.80;7.80;;;;;;;30.37;50.90;100443.16;133840;1298;22335;-80
2023/09/10 08:16:45;;;;;;;9.70;8.00;;;;;;;30.68;50.41;100441.86;133861;1295;22424;-77
2023/09/10 08:19:45;;;;;;;12.60;9.00;;;;;;;30.86;50.13;100437.98;133848;1298;22511;-77
2023/09/10 08:22:46;;;;;;;8.30;7.50;;;;;;;31.01;49.24;100436.36;133885;1298;23027;-78
2023/09/10 08:25:51;;;;;;;10.00;8.10;;;;;;;31.04;48.86;100431.79;133886;1298;22551;-77
2023/09/10 08:28:52;;;;;;;10.80;8.30;;;;;;;31.19;48.08;100431.66;133891;1298;22438;-77
2023/09/10 08:31:52;;;;;;;10.20;7.70;;;;;;;31.27;47.57;100428.04;133906;1298;22409;-79
2023/09/10 08:34:53;;;;;;;11.80;8.30;;;;;;;31.41;47.58;100426.59;133903;1292;22566;-78
2023/09/10 08:37:54;;;;;;;11.90;8.00;;;;;;;31.53;47.29;100426.83;133930;1298;23556;-78
2023/09/10 08:40:59;;;;;;;9.80;8.10;;;;;;;31.45;46.63;100425.43;133923;1298;22321;-79
2023/09/10 08:44:01;;;;;;;10.60;7.80;;;;;;;31.40;46.44;100429.23;133907;1298;22586;-79
2023/09/10 08:47:05;;;;;;;10.10;7.80;;;;;;;31.29;45.87;100427.73;133932;1298;22423;-78
2023/09/10 08:50:11;;;;;;;13.10;8.10;;;;;;;31.01;45.37;100424.86;133907;1298;23238;-77
2023/09/10 08:53:14;;;;;;;14.20;8.50;;;;;;;30.93;45.54;100420.91;133913;1298;22234;-76
2023/09/10 08:56:17;;;;;;;9.80;7.10;;;;;;;30.98;45.20;100418.33;133930;1298;22334;-81
2023/09/10 08:59:18;;;;;;;7.70;6.90;;;;;;;30.81;45.07;100422.66;133926;1298;22443;-81
2023/09/10 09:02:18;;;;;;;11.40;7.40;;;;;;;30.88;45.25;100419.17;133902;1298;22425;-83
2023/09/10 09:05:19;;;;;;;10.60;7.10;;;;;;;31.09;45.19;100419.16;133933;1298;23243;-84
2023/09/10 09:08:25;;;;;;;10.90;6.70;;;;;;;31.08;44.61;100418.34;133914;1298;22381;-80
2023/09/10 09:11:30;;;;;;;14.70;6.80;;;;;;;31.12;44.40;100421.46;133788;1298;22554;-85
2023/09/10 09:14:32;;;;;;;7.90;6.30;;;;;;;31.43;44.17;100420.41;133948;1298;22358;-85
2023/09/10 09:17:33;;;;;;;7.00;6.20;;;;;;;31.71;43.29;100425.01;133877;1298;22480;-83
2023/09/10 09:20:36;;;;;;;9.10;6.40;;;;;;;31.69;43.30;100422.50;133904;1298;22491;-83
2023/09/10 09:23:51;;;;;;;9.20;6.50;;;;;;;31.85;42.54;100424.73;133877;1298;22438;-82
2023/09/10 09:26:52;;;;;;;8.10;6.60;;;;;;;31.76;42.18;100424.08;133920;1298;22452;-84
2023/09/10 09:29:53;;;;;;;6.90;6.20;;;;;;;31.73;42.20;100425.45;133917;1298;22346;-87
2023/09/10 09:32:56;;;;;;;6.40;5.70;;;;;;;31.68;42.38;100424.49;133917;1298;22467;-83
2023/09/10 09:36:05;;;;;;;6.80;6.00;;;;;;;31.75;41.95;100420.37;133866;1298;22332;-82
2023/09/10 09:39:07;;;;;;;9.60;6.20;;;;;;;31.74;41.76;100420.50;133926;1298;22383;-82
2023/09/10 09:42:08;;;;;;;10.50;5.70;;;;;;;31.85;42.07;100417.17;133820;1298;23088;-80
2023/09/10 09:45:14;;;;;;;14.20;6.10;;;;;;;32.08;41.70;100419.08;133884;1301;22427;-82
2023/09/10 09:48:17;;;;;;;17.80;5.90;;;;;;;32.25;41.25;100418.77;133689;1301;22389;-86
2023/09/10 09:51:19;;;;;;;17.80;6.00;;;;;;;32.42;41.01;100415.67;133478;1302;22385;-86
2023/09/10 09:54:20;;;;;;;8.10;5.40;;;;;;;32.52;40.86;100411.11;133414;1301;22354;-88
2023/09/10 09:57:21;;;;;;;6.90;6.20;;;;;;;32.50;40.81;100408.95;133504;1301;22724;-86
2023/09/10 10:00:25;;;;;;;10.40;6.30;;;;;;;32.47;40.48;100407.73;133377;1301;22479;-89
2023/09/10 10:03:29;;;;;;;6.20;5.60;;;;;;;32.62;40.83;100404.97;133358;1301;23116;-88
2023/09/10 10:06:31;;;;;;;10.80;6.20;;;;;;;32.75;40.44;100405.06;133747;1301;22420;-84
2023/09/10 10:09:40;;;;;;;7.90;6.00;;;;;;;32.71;39.88;100398.95;133758;1300;22501;-81
2023/09/10 10:12:43;;;;;;;7.30;5.90;;;;;;;32.68;39.53;100395.42;133798;1304;22537;-83
2023/09/10 10:15:50;;;;;;;13.80;6.00;;;;;;;32.67;39.58;100390.58;133774;1301;22626;-83
2023/09/10 10:18:51;;;;;;;8.50;5.70;;;;;;;32.82;39.49;100392.04;133762;1301;22459;-84
2023/09/10 10:21:53;;;;;;;7.80;5.40;;;;;;;32.83;39.38;100390.12;133769;1300;22538;-82
2023/09/10 10:24:54;;;;;;;7.70;6.00;;;;;;;32.95;39.75;100381.54;133777;1300;22422;-86
2023/09/10 10:27:56;;;;;;;7.20;5.10;;;;;;;33.02;39.18;100381.52;133771;1301;22412;-84
2023/09/10 10:31:14;;;;;;;6.10;4.70;;;;;;;32.95;38.34;100376.65;133786;1300;22489;-80
2023/09/10 10:34:21;;;;;;;8.50;5.60;;;;;;;32.84;37.96;100376.60;133759;1301;22442;-82
2023/09/10 10:37:49;;;;;;;6.90;5.00;;;;;;;32.81;38.43;100372.61;133630;1300;23207;-84
2023/09/10 10:40:53;;;;;;;8.10;4.70;;;;;;;32.63;37.97;100371.66;133779;1301;22185;-81
2023/09/10 10:44:24;;;;;;;7.00;5.30;;;;;;;32.45;37.64;100365.15;133822;1295;23110;-83
2023/09/10 10:47:29;;;;;;;8.40;4.90;;;;;;;32.22;37.38;100361.55;133792;1301;22368;-83
2023/09/10 10:50:34;;;;;;;6.50;4.90;;;;;;;32.15;37.59;100356.44;133805;1301;22916;-83
2023/09/10 10:53:35;;;;;;;7.60;5.00;;;;;;;32.16;37.31;100351.54;133807;1301;22444;-82
2023/09/10 10:56:36;;;;;;;5.70;4.80;;;;;;;32.26;37.53;100350.90;133801;1301;22247;-82
2023/09/10 10:59:38;;;;;;;7.60;5.00;;;;;;;32.42;37.38;100352.92;133788;1301;22378;-79
2023/09/10 11:02:39;;;;;;;6.50;5.00;;;;;;;32.56;37.31;100353.96;133825;1301;22208;-83
2023/09/10 11:06:06;;;;;;;8.50;5.20;;;;;;;32.70;36.95;100352.83;133769;1300;23221;-86
2023/09/10 11:09:36;;;;;;;5.80;5.20;;;;;;;32.56;36.43;100355.38;133489;1298;22395;-81
2023/09/10 11:12:39;;;;;;;;;;;;;;;32.35;36.71;100346.42;133537;1304;23241;-81
2023/09/10 11:16:06;;;;;;;8.30;5.00;;;;;;;32.26;36.39;100348.26;133499;1301;22510;-81
2023/09/10 11:19:07;;;;;;;4.90;4.40;;;;;;;32.34;36.35;100349.88;133475;1301;23562;-80
2023/09/10 11:22:07;;;;;;;9.30;4.70;;;;;;;32.50;36.37;100349.79;133496;1301;22497;-82
2023/09/10 11:25:08;;;;;;;5.10;4.50;;;;;;;32.66;36.72;100349.30;133473;1291;22331;-81
2023/09/10 11:28:39;;;;;;;8.70;4.50;;;;;;;32.84;36.56;100344.09;133509;1301;22487;-81
2023/09/10 11:31:45;;;;;;;6.00;4.20;;;;;;;32.96;36.49;100339.85;133501;1302;22440;-79
2023/09/10 11:34:46;;;;;;;5.60;4.10;;;;;;;33.11;35.98;100335.88;133543;1304;22409;-80
2023/09/10 11:37:55;;;;;;;5.10;4.60;;;;;;;33.13;35.22;100344.53;133520;1301;23162;-81
2023/09/10 11:40:57;;;;;;;7.10;4.80;;;;;;;33.13;35.39;100344.55;133497;1301;22794;-82
2023/09/10 11:44:00;;;;;;;5.00;4.50;;;;;;;33.18;35.38;100346.61;133492;1304;22457;-81
2023/09/10 11:47:01;;;;;;;6.80;4.30;;;;;;;33.22;35.46;100343.64;133462;1301;22747;-81
2023/09/10 11:50:05;;;;;;;6.80;4.40;;;;;;;33.26;35.10;100342.62;133514;1303;23019;-82
2023/09/10 11:53:06;;;;;;;9.50;4.80;;;;;;;33.27;35.05;100341.44;133396;1301;22366;-84
2023/09/10 11:56:07;;;;;;;6.20;4.50;;;;;;;33.26;34.74;100339.81;133482;1304;22911;-81
2023/09/10 11:59:08;;;;;;;9.40;5.00;;;;;;;33.11;34.91;100339.80;133486;1301;22234;-80
2023/09/10 12:02:08;;;;;;;4.90;4.40;;;;;;;32.94;34.93;100340.36;133362;1302;22536;-81
2023/09/10 12:05:09;;;;;;;5.40;4.70;;;;;;;32.74;34.51;100338.17;133465;1301;22365;-78
2023/09/10 12:08:10;;;;;;;5.60;4.50;;;;;;;32.49;34.24;100336.52;133563;1300;22482;-81
2023/09/10 12:11:14;;;;;;;5.00;4.50;;;;;;;32.18;34.10;100333.14;133721;1300;22368;-80
2023/09/10 12:14:15;;;;;;;7.30;4.60;;;;;;;32.15;34.42;100328.82;133796;1295;22377;-82
2023/09/10 12:17:18;;;;;;;5.60;4.40;;;;;;;32.12;34.32;100328.40;133794;1300;22999;-82
2023/09/10 12:20:20;;;;;;;5.50;4.30;;;;;;;31.83;34.30;100331.41;133812;1302;22287;-80
2023/09/10 12:23:21;;;;;;;4.90;4.40;;;;;;;31.82;34.88;100327.75;133765;1302;22381;-80
2023/09/10 12:26:22;;;;;;;4.90;3.90;;;;;;;31.75;34.50;100328.98;133700;1301;22444;-81
2023/09/10 12:29:23;;;;;;;5.20;4.70;;;;;;;31.70;34.63;100324.13;133742;1301;22484;-80
2023/09/10 12:32:24;;;;;;;7.00;4.70;;;;;;;31.43;34.51;100320.55;133764;1300;23378;-79
2023/09/10 12:35:27;;;;;;;7.00;4.50;;;;;;;31.30;34.44;100317.59;133737;1304;22575;-80
2023/09/10 12:38:29;;;;;;;6.40;4.40;;;;;;;31.34;34.37;100312.16;133734;1301;22164;-80
2023/09/10 12:41:29;;;;;;;5.20;4.70;;;;;;;31.39;34.54;100308.13;133637;1301;22463;-81
2023/09/10 12:44:31;;;;;;;7.30;4.70;;;;;;;31.57;34.95;100312.08;133737;1294;22397;-79
2023/09/10 12:47:35;;;;;;;10.40;4.80;;;;;;;31.66;34.68;100310.59;133725;1301;22880;-80
2023/09/10 12:50:35;;;;;;;10.40;4.40;;;;;;;31.77;34.91;100315.04;133739;1301;23050;-79
2023/09/10 12:53:36;;;;;;;4.90;4.20;;;;;;;31.87;34.67;100312.84;133704;1301;23201;-81
2023/09/10 12:56:41;;;;;;;6.50;5.00;;;;;;;31.92;34.52;100307.64;133705;1301;22453;-80
2023/09/10 12:59:45;;;;;;;6.70;4.60;;;;;;;31.94;34.98;100305.77;133566;1301;22536;-80
2023/09/10 13:02:47;;;;;;;5.10;4.20;;;;;;;31.90;34.82;100300.95;133622;1301;23572;-79
2023/09/10 13:05:50;;;;;;;46.00;6.80;;;;;;;31.84;34.80;100300.88;133630;1301;22860;-80
2023/09/10 13:08:51;;;;;;;5.00;4.50;;;;;;;31.86;34.70;100299.63;133661;1301;23135;-80
2023/09/10 13:11:54;;;;;;;7.80;5.10;;;;;;;31.82;34.83;100298.55;133683;1298;22438;-80
2023/09/10 13:14:58;;;;;;;4.80;4.10;;;;;;;31.85;35.08;100299.20;133697;1301;22388;-78
2023/09/10 13:17:58;;;;;;;6.90;4.80;;;;;;;31.85;34.95;100295.98;133714;1301;22982;-78
2023/09/10 13:20:59;;;;;;;10.10;4.20;;;;;;;31.79;34.77;100295.16;133716;1301;22423;-79
2023/09/10 13:23:59;;;;;;;10.80;4.00;;;;;;;31.69;34.43;100291.40;133770;1302;22375;-80
2023/09/10 13:27:02;;;;;;;5.10;4.40;;;;;;;31.58;34.61;100290.61;133724;1301;23270;-78
2023/09/10 13:30:06;;;;;;;5.20;4.60;;;;;;;31.47;34.93;100293.34;133750;1300;23179;-79
2023/09/10 13:33:07;;;;;;;6.70;4.60;;;;;;;31.46;35.34;100293.33;133717;1301;23244;-80
2023/09/10 13:36:07;;;;;;;7.50;4.30;;;;;;;31.46;35.28;100298.42;133760;1301;22459;-79
2023/09/10 13:39:08;;;;;;;5.10;4.60;;;;;;;31.45;34.95;100294.09;133749;1302;22402;-79
2023/09/10 13:42:09;;;;;;;4.80;4.30;;;;;;;31.45;35.28;100289.33;133743;1301;22436;-79
2023/09/10 13:45:10;;;;;;;5.30;4.40;;;;;;;31.40;35.87;100292.27;133753;1301;22377;-80
2023/09/10 13:48:10;;;;;;;6.40;4.50;;;;;;;31.33;35.61;100288.38;133751;1301;22364;-79
2023/09/10 13:51:11;;;;;;;6.00;4.80;;;;;;;31.26;35.22;100285.85;133749;1302;22262;-79
2023/09/10 13:54:14;;;;;;;11.00;4.20;;;;;;;31.11;35.32;100284.20;133711;1301;22515;-79
2023/09/10 13:57:14;;;;;;;4.50;4.00;;;;;;;31.02;35.06;100284.06;133748;1301;22327;-79
2023/09/10 14:00:18;;;;;;;6.50;4.20;;;;;;;30.99;34.92;100282.91;133748;1301;22386;-79
2023/09/10 14:03:25;;;;;;;5.80;4.30;;;;;;;30.96;34.76;100283.30;133745;1298;22484;-79
2023/09/10 14:06:26;;;;;;;7.50;4.60;;;;;;;30.84;34.73;100285.61;133734;1302;22377;-79
2023/09/10 14:09:27;;;;;;;6.60;4.30;;;;;;;30.70;34.93;100283.29;133704;1302;23060;-78
2023/09/10 14:12:27;;;;;;;6.90;4.70;;;;;;;30.49;34.92;100282.83;133758;1301;22438;-79
2023/09/10 14:15:30;;;;;;;4.70;4.30;;;;;;;30.32;35.21;100283.11;133712;1302;22752;-79
2023/09/10 14:18:37;;;;;;;6.30;4.40;;;;;;;30.15;35.15;100281.13;133730;1301;22435;-79